sensor_id;sensor_type;location;lat;lon;timestamp;pressure;altitude;pressure_sealevel;temperature;humidity
57442;BME280;43284;47.042;15.498;2022-07-23T00:00:16;97204.28;;;20.46;77.16
57442;BME280;43284;47.042;15.498;2022-07-23T00:02:43;97207.94;;;20.45;76.62
57442;BME280;43284;47.042;15.498;2022-07-23T00:05:11;97208.19;;;20.42;76.73
57442;BME280;43284;47.042;15.498;2022-07-23T00:07:39;97206.78;;;20.37;77.23
57442;BME280;43284;47.042;15.498;2022-07-23T00:10:06;97196.03;;;20.39;77.25
57442;BME280;43284;47.042;15.498;2022-07-23T00:12:33;97192.25;;;20.42;76.30
57442;BME280;43284;47.042;15.498;2022-07-23T00:15:03;97197.56;;;20.42;76.54
57442;BME280;43284;47.042;15.498;2022-07-23T00:17:31;97195.75;;;20.42;77.38
57442;BME280;43284;47.042;15.498;2022-07-23T00:20:00;97189.47;;;20.43;76.89
57442;BME280;43284;47.042;15.498;2022-07-23T00:22:28;97175.47;;;20.41;76.73
57442;BME280;43284;47.042;15.498;2022-07-23T00:24:56;97176.59;;;20.38;77.03
57442;BME280;43284;47.042;15.498;2022-07-23T00:27:23;97178.69;;;20.35;77.22
57442;BME280;43284;47.042;15.498;2022-07-23T00:29:51;97177.41;;;20.29;77.41
57442;BME280;43284;47.042;15.498;2022-07-23T00:32:19;97173.34;;;20.25;76.85
57442;BME280;43284;47.042;15.498;2022-07-23T00:34:47;97172.66;;;20.23;77.34
57442;BME280;43284;47.042;15.498;2022-07-23T00:37:16;97169.41;;;20.20;77.48
57442;BME280;43284;47.042;15.498;2022-07-23T00:39:43;97172.34;;;20.16;77.34
57442;BME280;43284;47.042;15.498;2022-07-23T00:42:10;97173.69;;;20.01;78.34
57442;BME280;43284;47.042;15.498;2022-07-23T00:44:37;97170.00;;;19.92;78.56
57442;BME280;43284;47.042;15.498;2022-07-23T00:47:04;97166.59;;;19.81;78.93
57442;BME280;43284;47.042;15.498;2022-07-23T00:49:32;97170.88;;;19.72;79.92
57442;BME280;43284;47.042;15.498;2022-07-23T00:52:01;97169.69;;;19.65;80.09
57442;BME280;43284;47.042;15.498;2022-07-23T00:54:29;97177.19;;;19.60;80.56
57442;BME280;43284;47.042;15.498;2022-07-23T00:56:56;97176.88;;;19.53;80.53
57442;BME280;43284;47.042;15.498;2022-07-23T00:59:23;97188.31;;;19.53;80.92
57442;BME280;43284;47.042;15.498;2022-07-23T01:01:51;97190.13;;;19.53;80.49
57442;BME280;43284;47.042;15.498;2022-07-23T01:04:18;97193.03;;;19.50;80.66
57442;BME280;43284;47.042;15.498;2022-07-23T01:06:45;97197.38;;;19.51;80.37
57442;BME280;43284;47.042;15.498;2022-07-23T01:09:12;97183.13;;;19.52;80.92
57442;BME280;43284;47.042;15.498;2022-07-23T01:11:41;97184.56;;;19.56;80.79
57442;BME280;43284;47.042;15.498;2022-07-23T01:14:17;97185.41;;;19.56;80.82
57442;BME280;43284;47.042;15.498;2022-07-23T01:16:46;97187.81;;;19.60;80.66
57442;BME280;43284;47.042;15.498;2022-07-23T01:19:14;97185.16;;;19.60;80.71
57442;BME280;43284;47.042;15.498;2022-07-23T01:21:48;97189.63;;;19.59;81.37
57442;BME280;43284;47.042;15.498;2022-07-23T01:24:17;97189.34;;;19.62;80.58
57442;BME280;43284;47.042;15.498;2022-07-23T01:26:46;97185.59;;;19.65;79.73
57442;BME280;43284;47.042;15.498;2022-07-23T01:29:14;97186.19;;;19.68;80.46
57442;BME280;43284;47.042;15.498;2022-07-23T01:31:43;97179.06;;;19.69;79.94
57442;BME280;43284;47.042;15.498;2022-07-23T01:34:10;97178.09;;;19.70;80.00
57442;BME280;43284;47.042;15.498;2022-07-23T01:36:38;97181.63;;;19.70;79.44
57442;BME280;43284;47.042;15.498;2022-07-23T01:39:07;97171.97;;;19.69;79.47
57442;BME280;43284;47.042;15.498;2022-07-23T01:41:34;97170.41;;;19.67;79.62
57442;BME280;43284;47.042;15.498;2022-07-23T01:44:02;97173.66;;;19.70;79.31
57442;BME280;43284;47.042;15.498;2022-07-23T01:46:30;97165.31;;;19.75;78.69
57442;BME280;43284;47.042;15.498;2022-07-23T01:48:59;97159.72;;;19.78;78.65
57442;BME280;43284;47.042;15.498;2022-07-23T01:51:28;97152.59;;;19.79;79.54
57442;BME280;43284;47.042;15.498;2022-07-23T01:53:56;97153.72;;;19.76;79.54
57442;BME280;43284;47.042;15.498;2022-07-23T01:56:23;97160.25;;;19.72;79.62
57442;BME280;43284;47.042;15.498;2022-07-23T01:58:51;97155.19;;;19.69;79.62
57442;BME280;43284;47.042;15.498;2022-07-23T02:01:18;97156.19;;;19.68;80.02
57442;BME280;43284;47.042;15.498;2022-07-23T02:03:46;97162.00;;;19.62;79.73
57442;BME280;43284;47.042;15.498;2022-07-23T02:06:13;97158.88;;;19.56;80.50
57442;BME280;43284;47.042;15.498;2022-07-23T02:08:41;97161.81;;;19.53;80.40
57442;BME280;43284;47.042;15.498;2022-07-23T02:11:08;97159.03;;;19.55;80.12
57442;BME280;43284;47.042;15.498;2022-07-23T02:13:35;97175.75;;;19.34;80.70
57442;BME280;43284;47.042;15.498;2022-07-23T02:16:03;97170.41;;;19.25;80.98
57442;BME280;43284;47.042;15.498;2022-07-23T02:18:31;97169.81;;;19.21;81.17
57442;BME280;43284;47.042;15.498;2022-07-23T02:20:57;97173.69;;;19.17;81.30
57442;BME280;43284;47.042;15.498;2022-07-23T02:23:24;97163.94;;;19.18;81.64
57442;BME280;43284;47.042;15.498;2022-07-23T02:25:51;97158.38;;;19.21;81.38
57442;BME280;43284;47.042;15.498;2022-07-23T02:28:18;97153.91;;;19.21;81.43
57442;BME280;43284;47.042;15.498;2022-07-23T02:30:46;97155.84;;;19.19;81.94
57442;BME280;43284;47.042;15.498;2022-07-23T02:33:13;97153.06;;;19.21;81.89
57442;BME280;43284;47.042;15.498;2022-07-23T02:35:40;97156.84;;;19.18;81.91
57442;BME280;43284;47.042;15.498;2022-07-23T02:38:07;97160.00;;;19.12;81.99
57442;BME280;43284;47.042;15.498;2022-07-23T02:40:34;97157.59;;;19.09;82.30
57442;BME280;43284;47.042;15.498;2022-07-23T02:43:02;97158.44;;;19.09;82.64
57442;BME280;43284;47.042;15.498;2022-07-23T02:45:29;97161.91;;;19.10;82.95
57442;BME280;43284;47.042;15.498;2022-07-23T02:47:56;97166.38;;;19.09;82.56
57442;BME280;43284;47.042;15.498;2022-07-23T02:50:23;97155.78;;;19.09;82.95
57442;BME280;43284;47.042;15.498;2022-07-23T02:52:51;97157.34;;;19.12;82.07
57442;BME280;43284;47.042;15.498;2022-07-23T02:55:19;97153.59;;;19.14;81.40
57442;BME280;43284;47.042;15.498;2022-07-23T02:57:46;97154.19;;;19.18;81.41
57442;BME280;43284;47.042;15.498;2022-07-23T03:00:14;97158.06;;;19.14;81.23
57442;BME280;43284;47.042;15.498;2022-07-23T03:02:41;97145.44;;;19.06;81.82
57442;BME280;43284;47.042;15.498;2022-07-23T03:05:08;97153.31;;;18.97;82.07
57442;BME280;43284;47.042;15.498;2022-07-23T03:07:35;97155.38;;;18.93;81.72
57442;BME280;43284;47.042;15.498;2022-07-23T03:10:03;97146.69;;;18.91;82.60
57442;BME280;43284;47.042;15.498;2022-07-23T03:12:30;97145.88;;;18.90;82.69
57442;BME280;43284;47.042;15.498;2022-07-23T03:14:57;97151.06;;;18.92;81.83
57442;BME280;43284;47.042;15.498;2022-07-23T03:17:24;97152.59;;;18.94;82.22
57442;BME280;43284;47.042;15.498;2022-07-23T03:19:51;97151.75;;;18.94;82.28
57442;BME280;43284;47.042;15.498;2022-07-23T03:22:18;97151.81;;;18.83;83.06
57442;BME280;43284;47.042;15.498;2022-07-23T03:24:46;97136.16;;;18.80;82.89
57442;BME280;43284;47.042;15.498;2022-07-23T03:27:24;97140.75;;;18.78;82.93
57442;BME280;43284;47.042;15.498;2022-07-23T03:29:53;97140.00;;;18.76;82.63
57442;BME280;43284;47.042;15.498;2022-07-23T03:32:22;97138.56;;;18.71;82.86
57442;BME280;43284;47.042;15.498;2022-07-23T03:34:50;97139.91;;;18.66;83.87
57442;BME280;43284;47.042;15.498;2022-07-23T03:37:18;97131.38;;;18.62;83.97
57442;BME280;43284;47.042;15.498;2022-07-23T03:39:46;97132.34;;;18.61;83.68
57442;BME280;43284;47.042;15.498;2022-07-23T03:42:13;97138.59;;;18.60;84.17
57442;BME280;43284;47.042;15.498;2022-07-23T03:44:41;97136.94;;;18.59;83.61
57442;BME280;43284;47.042;15.498;2022-07-23T03:47:08;97141.25;;;18.60;83.57
57442;BME280;43284;47.042;15.498;2022-07-23T03:49:35;97140.16;;;18.63;82.89
57442;BME280;43284;47.042;15.498;2022-07-23T03:52:02;97143.56;;;18.53;84.42
57442;BME280;43284;47.042;15.498;2022-07-23T03:54:29;97157.88;;;18.51;84.12
57442;BME280;43284;47.042;15.498;2022-07-23T03:56:56;97147.28;;;18.51;84.37
57442;BME280;43284;47.042;15.498;2022-07-23T03:59:23;97164.28;;;18.48;84.34
57442;BME280;43284;47.042;15.498;2022-07-23T04:01:51;97164.38;;;18.47;84.46
57442;BME280;43284;47.042;15.498;2022-07-23T04:04:18;97168.84;;;18.46;84.46
57442;BME280;43284;47.042;15.498;2022-07-23T04:06:45;97167.16;;;18.45;84.13
57442;BME280;43284;47.042;15.498;2022-07-23T04:09:12;97176.31;;;18.41;84.73
57442;BME280;43284;47.042;15.498;2022-07-23T04:11:38;97180.03;;;18.39;84.47
57442;BME280;43284;47.042;15.498;2022-07-23T04:14:06;97182.09;;;18.35;85.01
57442;BME280;43284;47.042;15.498;2022-07-23T04:16:33;97183.19;;;18.32;85.02
57442;BME280;43284;47.042;15.498;2022-07-23T04:19:00;97184.13;;;18.31;85.38
57442;BME280;43284;47.042;15.498;2022-07-23T04:21:27;97184.13;;;18.31;85.25
57442;BME280;43284;47.042;15.498;2022-07-23T04:23:54;97182.59;;;18.29;85.48
57442;BME280;43284;47.042;15.498;2022-07-23T04:26:21;97187.03;;;18.28;86.16
57442;BME280;43284;47.042;15.498;2022-07-23T04:28:48;97189.53;;;18.30;85.72
57442;BME280;43284;47.042;15.498;2022-07-23T04:31:16;97190.16;;;18.33;85.84
57442;BME280;43284;47.042;15.498;2022-07-23T04:33:44;97191.50;;;18.39;85.27
57442;BME280;43284;47.042;15.498;2022-07-23T04:36:12;97188.22;;;18.47;85.35
57442;BME280;43284;47.042;15.498;2022-07-23T04:38:38;97184.09;;;18.54;85.33
57442;BME280;43284;47.042;15.498;2022-07-23T04:41:05;97186.25;;;18.60;85.44
57442;BME280;43284;47.042;15.498;2022-07-23T04:43:32;97174.34;;;18.66;84.96
57442;BME280;43284;47.042;15.498;2022-07-23T04:46:00;97180.47;;;18.78;85.90
57442;BME280;43284;47.042;15.498;2022-07-23T04:48:27;97178.41;;;18.81;85.19
57442;BME280;43284;47.042;15.498;2022-07-23T04:50:54;97171.91;;;18.85;85.84
57442;BME280;43284;47.042;15.498;2022-07-23T04:53:22;97171.41;;;18.91;85.41
57442;BME280;43284;47.042;15.498;2022-07-23T04:55:49;97162.22;;;18.96;85.61
57442;BME280;43284;47.042;15.498;2022-07-23T04:58:17;97167.00;;;19.02;85.62
57442;BME280;43284;47.042;15.498;2022-07-23T05:00:44;97164.69;;;19.08;85.37
57442;BME280;43284;47.042;15.498;2022-07-23T05:03:12;97163.34;;;19.14;85.26
57442;BME280;43284;47.042;15.498;2022-07-23T05:05:41;97168.00;;;19.22;85.44
57442;BME280;43284;47.042;15.498;2022-07-23T05:08:08;97175.31;;;19.29;85.65
57442;BME280;43284;47.042;15.498;2022-07-23T05:10:35;97174.81;;;19.35;85.40
57442;BME280;43284;47.042;15.498;2022-07-23T05:13:02;97174.41;;;19.40;85.25
57442;BME280;43284;47.042;15.498;2022-07-23T05:15:29;97171.38;;;19.45;86.00
57442;BME280;43284;47.042;15.498;2022-07-23T05:17:56;97174.75;;;19.47;85.79
57442;BME280;43284;47.042;15.498;2022-07-23T05:20:25;97168.22;;;19.51;85.50
57442;BME280;43284;47.042;15.498;2022-07-23T05:22:52;97173.72;;;19.59;86.09
57442;BME280;43284;47.042;15.498;2022-07-23T05:25:19;97169.69;;;19.65;86.41
57442;BME280;43284;47.042;15.498;2022-07-23T05:27:46;97182.47;;;19.71;85.95
57442;BME280;43284;47.042;15.498;2022-07-23T05:30:13;97175.53;;;19.80;85.98
57442;BME280;43284;47.042;15.498;2022-07-23T05:32:40;97177.66;;;19.86;85.79
57442;BME280;43284;47.042;15.498;2022-07-23T05:35:07;97161.22;;;19.92;84.75
57442;BME280;43284;47.042;15.498;2022-07-23T05:37:35;97163.91;;;20.02;84.37
57442;BME280;43284;47.042;15.498;2022-07-23T05:40:05;97169.94;;;20.13;83.75
57442;BME280;43284;47.042;15.498;2022-07-23T05:42:37;97167.34;;;20.23;83.08
57442;BME280;43284;47.042;15.498;2022-07-23T05:45:06;97166.22;;;20.35;83.57
57442;BME280;43284;47.042;15.498;2022-07-23T05:47:44;97162.09;;;20.43;82.66
57442;BME280;43284;47.042;15.498;2022-07-23T05:50:12;97169.22;;;20.52;82.03
57442;BME280;43284;47.042;15.498;2022-07-23T05:52:40;97165.06;;;20.59;81.70
57442;BME280;43284;47.042;15.498;2022-07-23T05:55:07;97163.97;;;20.71;81.08
57442;BME280;43284;47.042;15.498;2022-07-23T05:57:35;97163.16;;;20.81;80.20
57442;BME280;43284;47.042;15.498;2022-07-23T06:00:07;97164.00;;;20.91;79.80
57442;BME280;43284;47.042;15.498;2022-07-23T06:02:34;97155.06;;;21.02;78.89
57442;BME280;43284;47.042;15.498;2022-07-23T06:05:01;97152.50;;;21.10;79.03
57442;BME280;43284;47.042;15.498;2022-07-23T06:07:28;97155.06;;;21.21;78.77
57442;BME280;43284;47.042;15.498;2022-07-23T06:09:55;97153.19;;;21.31;77.34
57442;BME280;43284;47.042;15.498;2022-07-23T06:12:22;97158.25;;;21.44;75.96
57442;BME280;43284;47.042;15.498;2022-07-23T06:14:50;97157.13;;;21.56;76.68
57442;BME280;43284;47.042;15.498;2022-07-23T06:17:18;97151.78;;;21.66;76.45
57442;BME280;43284;47.042;15.498;2022-07-23T06:19:46;97154.50;;;21.84;75.43
57442;BME280;43284;47.042;15.498;2022-07-23T06:22:13;97153.94;;;21.90;75.71
57442;BME280;43284;47.042;15.498;2022-07-23T06:24:41;97152.41;;;21.97;76.14
57442;BME280;43284;47.042;15.498;2022-07-23T06:27:08;97152.44;;;22.15;75.46
57442;BME280;43284;47.042;15.498;2022-07-23T06:29:36;97139.66;;;22.29;74.49
57442;BME280;43284;47.042;15.498;2022-07-23T06:32:04;97148.00;;;22.44;73.48
57442;BME280;43284;47.042;15.498;2022-07-23T06:34:31;97147.91;;;22.53;73.32
57442;BME280;43284;47.042;15.498;2022-07-23T06:36:58;97148.09;;;22.70;72.94
57442;BME280;43284;47.042;15.498;2022-07-23T06:39:26;97155.94;;;22.89;72.49
57442;BME280;43284;47.042;15.498;2022-07-23T06:41:53;97150.25;;;23.02;69.78
57442;BME280;43284;47.042;15.498;2022-07-23T06:44:20;97151.78;;;23.22;71.64
57442;BME280;43284;47.042;15.498;2022-07-23T06:46:48;97152.59;;;23.41;67.35
57442;BME280;43284;47.042;15.498;2022-07-23T06:49:15;97152.88;;;23.56;70.37
57442;BME280;43284;47.042;15.498;2022-07-23T06:51:42;97161.44;;;23.68;70.23
57442;BME280;43284;47.042;15.498;2022-07-23T06:54:10;97159.69;;;23.76;69.40
57442;BME280;43284;47.042;15.498;2022-07-23T06:56:37;97159.81;;;23.93;67.48
57442;BME280;43284;47.042;15.498;2022-07-23T06:59:04;97163.72;;;24.06;68.48
57442;BME280;43284;47.042;15.498;2022-07-23T07:01:32;97161.44;;;24.20;70.01
57442;BME280;43284;47.042;15.498;2022-07-23T07:03:59;97157.63;;;24.31;69.67
57442;BME280;43284;47.042;15.498;2022-07-23T07:06:26;97154.91;;;24.49;66.65
57442;BME280;43284;47.042;15.498;2022-07-23T07:08:53;97156.81;;;24.64;63.24
57442;BME280;43284;47.042;15.498;2022-07-23T07:11:22;97150.81;;;24.79;65.57
57442;BME280;43284;47.042;15.498;2022-07-23T07:13:50;97149.66;;;24.98;66.23
57442;BME280;43284;47.042;15.498;2022-07-23T07:16:18;97146.66;;;25.09;63.78
57442;BME280;43284;47.042;15.498;2022-07-23T07:18:46;97145.69;;;25.26;63.70
57442;BME280;43284;47.042;15.498;2022-07-23T07:21:14;97150.56;;;25.39;63.13
57442;BME280;43284;47.042;15.498;2022-07-23T07:23:42;97158.56;;;25.56;60.96
57442;BME280;43284;47.042;15.498;2022-07-23T07:26:12;97168.91;;;25.67;61.97
57442;BME280;43284;47.042;15.498;2022-07-23T07:28:42;97160.72;;;25.68;60.64
57442;BME280;43284;47.042;15.498;2022-07-23T07:31:09;97164.88;;;25.79;62.07
57442;BME280;43284;47.042;15.498;2022-07-23T07:33:36;97167.06;;;25.84;62.04
57442;BME280;43284;47.042;15.498;2022-07-23T07:36:04;97168.56;;;25.86;60.66
57442;BME280;43284;47.042;15.498;2022-07-23T07:38:31;97167.75;;;25.94;60.46
57442;BME280;43284;47.042;15.498;2022-07-23T07:40:59;97164.19;;;26.02;61.09
57442;BME280;43284;47.042;15.498;2022-07-23T07:43:26;97168.53;;;26.11;60.65
57442;BME280;43284;47.042;15.498;2022-07-23T07:45:54;97171.66;;;26.23;59.57
57442;BME280;43284;47.042;15.498;2022-07-23T07:48:21;97182.69;;;26.36;57.80
57442;BME280;43284;47.042;15.498;2022-07-23T07:50:48;97180.78;;;26.53;57.71
57442;BME280;43284;47.042;15.498;2022-07-23T07:53:16;97180.56;;;26.63;59.82
57442;BME280;43284;47.042;15.498;2022-07-23T07:55:44;97169.44;;;26.74;60.53
57442;BME280;43284;47.042;15.498;2022-07-23T07:58:12;97175.25;;;26.86;57.91
57442;BME280;43284;47.042;15.498;2022-07-23T08:00:39;97185.88;;;27.02;56.75
57442;BME280;43284;47.042;15.498;2022-07-23T08:03:07;97176.25;;;27.16;54.61
57442;BME280;43284;47.042;15.498;2022-07-23T08:05:34;97185.13;;;27.40;55.73
57442;BME280;43284;47.042;15.498;2022-07-23T08:08:01;97182.38;;;27.48;54.83
57442;BME280;43284;47.042;15.498;2022-07-23T08:10:29;97184.84;;;27.58;55.50
57442;BME280;43284;47.042;15.498;2022-07-23T08:12:58;97192.47;;;27.69;54.73
57442;BME280;43284;47.042;15.498;2022-07-23T08:15:28;97190.16;;;27.81;56.85
57442;BME280;43284;47.042;15.498;2022-07-23T08:17:56;97184.91;;;27.87;56.46
57442;BME280;43284;47.042;15.498;2022-07-23T08:20:24;97184.47;;;27.99;60.24
57442;BME280;43284;47.042;15.498;2022-07-23T08:23:02;97177.69;;;28.03;57.52
57442;BME280;43284;47.042;15.498;2022-07-23T08:25:33;97184.84;;;28.10;56.26
57442;BME280;43284;47.042;15.498;2022-07-23T08:28:02;97180.22;;;28.19;55.21
57442;BME280;43284;47.042;15.498;2022-07-23T08:30:31;97181.97;;;28.27;56.42
57442;BME280;43284;47.042;15.498;2022-07-23T08:33:09;97177.31;;;28.35;56.14
57442;BME280;43284;47.042;15.498;2022-07-23T08:35:42;97171.22;;;28.42;54.66
57442;BME280;43284;47.042;15.498;2022-07-23T08:38:12;97178.00;;;28.52;56.39
57442;BME280;43284;47.042;15.498;2022-07-23T08:40:41;97180.78;;;28.59;54.94
57442;BME280;43284;47.042;15.498;2022-07-23T08:43:11;97170.91;;;28.66;52.51
57442;BME280;43284;47.042;15.498;2022-07-23T08:45:41;97177.88;;;28.75;52.78
57442;BME280;43284;47.042;15.498;2022-07-23T08:48:16;97164.94;;;28.86;53.00
57442;BME280;43284;47.042;15.498;2022-07-23T08:50:46;97171.69;;;28.96;54.94
57442;BME280;43284;47.042;15.498;2022-07-23T08:53:14;97164.13;;;29.07;55.41
57442;BME280;43284;47.042;15.498;2022-07-23T08:55:47;97168.78;;;29.13;53.57
57442;BME280;43284;47.042;15.498;2022-07-23T08:58:15;97164.28;;;29.20;53.67
57442;BME280;43284;47.042;15.498;2022-07-23T09:00:43;97164.22;;;29.35;53.89
57442;BME280;43284;47.042;15.498;2022-07-23T09:03:25;97156.91;;;29.50;54.40
57442;BME280;43284;47.042;15.498;2022-07-23T09:06:00;97154.50;;;29.62;54.66
57442;BME280;43284;47.042;15.498;2022-07-23T09:08:40;97157.09;;;29.70;50.65
57442;BME280;43284;47.042;15.498;2022-07-23T09:11:11;97156.31;;;29.76;51.55
57442;BME280;43284;47.042;15.498;2022-07-23T09:13:52;97167.50;;;29.80;51.50
57442;BME280;43284;47.042;15.498;2022-07-23T09:16:27;97165.28;;;29.84;52.75
57442;BME280;43284;47.042;15.498;2022-07-23T09:19:01;97159.88;;;29.84;52.92
57442;BME280;43284;47.042;15.498;2022-07-23T09:21:32;97161.16;;;29.88;53.14
57442;BME280;43284;47.042;15.498;2022-07-23T09:24:10;97166.13;;;29.91;52.92
57442;BME280;43284;47.042;15.498;2022-07-23T09:26:48;97158.09;;;29.97;53.14
57442;BME280;43284;47.042;15.498;2022-07-23T09:31:56;97160.59;;;29.99;52.89
57442;BME280;43284;47.042;15.498;2022-07-23T09:34:30;97154.19;;;30.00;53.63
57442;BME280;43284;47.042;15.498;2022-07-23T09:37:20;97152.38;;;30.07;53.61
57442;BME280;43284;47.042;15.498;2022-07-23T09:39:50;97153.00;;;30.09;54.68
57442;BME280;43284;47.042;15.498;2022-07-23T09:42:23;97164.19;;;30.13;52.90
57442;BME280;43284;47.042;15.498;2022-07-23T09:44:54;97172.75;;;30.16;51.62
57442;BME280;43284;47.042;15.498;2022-07-23T09:47:24;97181.88;;;30.15;52.05
57442;BME280;43284;47.042;15.498;2022-07-23T09:50:19;97184.94;;;30.12;50.09
57442;BME280;43284;47.042;15.498;2022-07-23T09:52:49;97186.59;;;30.07;50.80
57442;BME280;43284;47.042;15.498;2022-07-23T09:55:17;97179.50;;;30.06;49.35
57442;BME280;43284;47.042;15.498;2022-07-23T09:57:46;97165.44;;;30.10;49.10
57442;BME280;43284;47.042;15.498;2022-07-23T10:00:20;97166.34;;;30.17;50.34
57442;BME280;43284;47.042;15.498;2022-07-23T10:02:47;97146.00;;;30.22;48.29
57442;BME280;43284;47.042;15.498;2022-07-23T10:05:16;97147.56;;;30.31;50.10
57442;BME280;43284;47.042;15.498;2022-07-23T10:07:45;97150.03;;;30.32;50.48
57442;BME280;43284;47.042;15.498;2022-07-23T10:10:14;97149.69;;;30.42;49.22
57442;BME280;43284;47.042;15.498;2022-07-23T10:12:44;97145.31;;;30.48;49.91
57442;BME280;43284;47.042;15.498;2022-07-23T10:15:18;97148.69;;;30.63;49.24
57442;BME280;43284;47.042;15.498;2022-07-23T10:17:47;97133.59;;;30.75;50.37
57442;BME280;43284;47.042;15.498;2022-07-23T10:20:15;97144.66;;;30.94;49.24
57442;BME280;43284;47.042;15.498;2022-07-23T10:25:51;97145.53;;;30.94;46.61
57442;BME280;43284;47.042;15.498;2022-07-23T10:34:02;97141.81;;;31.15;47.51
57442;BME280;43284;47.042;15.498;2022-07-23T10:36:49;97141.63;;;31.30;47.97
57442;BME280;43284;47.042;15.498;2022-07-23T10:39:24;97134.38;;;31.51;46.61
57442;BME280;43284;47.042;15.498;2022-07-23T10:42:14;97128.38;;;31.62;44.72
57442;BME280;43284;47.042;15.498;2022-07-23T10:44:47;97124.78;;;31.75;44.15
57442;BME280;43284;47.042;15.498;2022-07-23T10:47:35;97136.03;;;31.78;45.26
57442;BME280;43284;47.042;15.498;2022-07-23T10:50:21;97136.47;;;31.69;43.09
57442;BME280;43284;47.042;15.498;2022-07-23T10:55:48;97136.47;;;31.62;44.74
57442;BME280;43284;47.042;15.498;2022-07-23T10:58:22;97130.84;;;31.70;46.12
57442;BME280;43284;47.042;15.498;2022-07-23T11:00:50;97139.16;;;31.75;44.71
57442;BME280;43284;47.042;15.498;2022-07-23T11:03:33;97129.38;;;31.81;43.53
57442;BME280;43284;47.042;15.498;2022-07-23T11:06:03;97128.72;;;31.86;42.18
57442;BME280;43284;47.042;15.498;2022-07-23T11:08:30;97125.81;;;31.94;42.60
57442;BME280;43284;47.042;15.498;2022-07-23T11:13:45;97124.38;;;32.05;45.40
57442;BME280;43284;47.042;15.498;2022-07-23T11:16:19;97116.00;;;32.19;44.37
57442;BME280;43284;47.042;15.498;2022-07-23T11:18:56;97116.59;;;32.28;43.52
57442;BME280;43284;47.042;15.498;2022-07-23T11:24:15;97117.16;;;32.43;42.57
57442;BME280;43284;47.042;15.498;2022-07-23T11:26:49;97109.03;;;32.43;42.28
57442;BME280;43284;47.042;15.498;2022-07-23T11:32:19;97102.38;;;32.53;43.69
57442;BME280;43284;47.042;15.498;2022-07-23T11:34:51;97100.84;;;32.63;42.26
57442;BME280;43284;47.042;15.498;2022-07-23T11:37:32;97090.44;;;32.67;40.78
57442;BME280;43284;47.042;15.498;2022-07-23T11:40:01;97078.94;;;32.72;42.34
57442;BME280;43284;47.042;15.498;2022-07-23T11:42:31;97083.91;;;32.75;40.82
57442;BME280;43284;47.042;15.498;2022-07-23T11:44:59;97087.59;;;32.87;41.29
57442;BME280;43284;47.042;15.498;2022-07-23T11:47:27;97073.81;;;32.95;41.07
57442;BME280;43284;47.042;15.498;2022-07-23T11:50:03;97077.94;;;32.98;40.98
57442;BME280;43284;47.042;15.498;2022-07-23T11:52:33;97069.16;;;33.02;40.14
57442;BME280;43284;47.042;15.498;2022-07-23T11:55:03;97073.22;;;33.18;41.56
57442;BME280;43284;47.042;15.498;2022-07-23T11:57:36;97064.38;;;33.30;39.67
57442;BME280;43284;47.042;15.498;2022-07-23T12:00:17;97072.34;;;33.50;39.36
57442;BME280;43284;47.042;15.498;2022-07-23T12:02:55;97060.72;;;33.42;37.53
57442;BME280;43284;47.042;15.498;2022-07-23T12:05:28;97065.66;;;33.52;39.11
57442;BME280;43284;47.042;15.498;2022-07-23T12:07:57;97065.56;;;33.65;38.08
57442;BME280;43284;47.042;15.498;2022-07-23T12:10:28;97054.28;;;33.43;38.49
57442;BME280;43284;47.042;15.498;2022-07-23T12:13:10;97062.06;;;33.33;37.77
57442;BME280;43284;47.042;15.498;2022-07-23T12:15:40;97062.06;;;33.33;38.34
57442;BME280;43284;47.042;15.498;2022-07-23T12:18:11;97059.34;;;33.33;39.80
57442;BME280;43284;47.042;15.498;2022-07-23T12:20:49;97053.28;;;33.56;39.75
57442;BME280;43284;47.042;15.498;2022-07-23T12:23:19;97046.38;;;33.85;37.15
57442;BME280;43284;47.042;15.498;2022-07-23T12:25:49;97054.72;;;33.84;36.04
57442;BME280;43284;47.042;15.498;2022-07-23T12:28:18;97049.28;;;33.65;36.10
57442;BME280;43284;47.042;15.498;2022-07-23T12:30:54;97048.00;;;33.43;37.27
57442;BME280;43284;47.042;15.498;2022-07-23T12:33:27;97045.69;;;33.47;39.28
57442;BME280;43284;47.042;15.498;2022-07-23T12:35:55;97048.59;;;33.45;39.10
57442;BME280;43284;47.042;15.498;2022-07-23T12:38:25;97040.19;;;33.35;37.94
57442;BME280;43284;47.042;15.498;2022-07-23T12:40:54;97049.50;;;33.39;40.65
57442;BME280;43284;47.042;15.498;2022-07-23T12:43:30;97041.22;;;33.59;40.35
57442;BME280;43284;47.042;15.498;2022-07-23T12:48:39;97034.00;;;33.90;41.05
57442;BME280;43284;47.042;15.498;2022-07-23T12:51:09;97028.19;;;34.04;41.14
57442;BME280;43284;47.042;15.498;2022-07-23T12:56:13;97024.31;;;34.31;38.38
57442;BME280;43284;47.042;15.498;2022-07-23T12:58:50;97026.13;;;34.37;40.20
57442;BME280;43284;47.042;15.498;2022-07-23T13:04:07;97016.16;;;34.79;35.75
57442;BME280;43284;47.042;15.498;2022-07-23T13:06:40;97014.16;;;34.56;36.95
57442;BME280;43284;47.042;15.498;2022-07-23T13:09:10;97019.91;;;34.48;35.89
57442;BME280;43284;47.042;15.498;2022-07-23T13:11:39;97016.44;;;34.29;37.75
57442;BME280;43284;47.042;15.498;2022-07-23T13:14:06;97022.72;;;34.11;37.33
57442;BME280;43284;47.042;15.498;2022-07-23T13:16:33;97013.34;;;34.07;37.14
57442;BME280;43284;47.042;15.498;2022-07-23T13:19:01;97013.78;;;34.04;36.52
57442;BME280;43284;47.042;15.498;2022-07-23T13:21:29;97012.84;;;34.17;38.09
57442;BME280;43284;47.042;15.498;2022-07-23T13:23:57;97018.56;;;34.27;35.84
57442;BME280;43284;47.042;15.498;2022-07-23T13:26:25;97010.53;;;34.32;37.41
57442;BME280;43284;47.042;15.498;2022-07-23T13:28:54;97012.81;;;34.35;37.67
57442;BME280;43284;47.042;15.498;2022-07-23T13:31:22;97011.75;;;34.36;37.37